Belvidere, NC (27919)

10:44 AM EST on November 22, 2014 (GMT -0500)
Holiday Island Road | Change Station
CLOSE
Current Station
Personal Weather Station
Location: Hertford, NC
Elevation: 10 ft
Nearby Weather Stations

Elev 10 ft 36.12 °N, 76.45 °W | Updated 2 minutes ago

Clear
Clear
47.8 °F
Feels Like 48 °F
N
2.0
Wind Variable Wind from SSW
Gusts 4.0 mph

Today
High -- | Low -- °F
--% Chance of Precip.
Yesterday
High -- | Low -- °F
Precip. -- in
6:50 AM 4:53 PM
New Moon, 0% visible
Pressure 30.58 in
Visibility 10.0 miles
Clouds Clear
Windchill 48 °F
Dew Point 32 °F
Humidity 53%
Rainfall 0.00 in
Snow Depth Not available.
UV 3 out of 12
Pollen .10 out of 12
Air Quality Not available.
Flu Activity Not available.
METAR KECG 221454Z 14003KT 10SM CLR 08/M04 A3058 RMK AO2 SLP355 T00831039 50001

More Conditions Fewer Conditions

Pressure 30.58 in
Visibility 10.0 miles
Clouds Clear
Windchill 48 °F
Dew Point 32 °F
Humidity 53%
Rainfall 0.00 in
Snow Depth Not available.
UV 3 out of 12
Pollen .10 out of 12
Air Quality Not available.
Flu Activity Not available.
METAR KECG 221454Z 14003KT 10SM CLR 08/M04 A3058 RMK AO2 SLP355 T00831039 50001

More Conditions Fewer Conditions

10-Day Weather Forecast

Almanac

Astronomy

Nov. 22, 2014 Rise Set
Actual Time
Civil Twilight
Nautical Twilight
Astronomical Twilight
Moon
Length of Visible Light
Length of Day
Tomorrow will be .
, % of the Moon is Illuminated

Today's Extremes

State Highs State Lows

Community

WunderPhotos

Upload Photos

1,772,837 photos uploaded!

WunderBlogs® & News

Nearby

Air Quality

  Air Quality AQ Index Pollutant
Not available.

Snow Depth

Station Depth Elevation

Earthquake Activity

City Distance Mag. Time & Date
Minimum magnitude displayed is 2.5.

Coastal Water Temperatures

Place Temperature

Nearby Weather Stations